sensor_id;sensor_type;location;lat;lon;timestamp;pressure;altitude;pressure_sealevel;temperature;humidity
6032;BME280;3044;43.232;27.972;2023-04-09T00:01:37;43933.41;;;-143.84;91.67
6032;BME280;3044;43.232;27.972;2023-04-09T00:04:06;43944.84;;;-143.84;91.61
6032;BME280;3044;43.232;27.972;2023-04-09T00:06:33;43935.31;;;-143.84;91.29
6032;BME280;3044;43.232;27.972;2023-04-09T00:09:00;43910.56;;;-143.84;91.39
6032;BME280;3044;43.232;27.972;2023-04-09T00:11:27;43902.97;;;-143.84;90.83
6032;BME280;3044;43.232;27.972;2023-04-09T00:13:54;43899.16;;;-143.84;90.59
6032;BME280;3044;43.232;27.972;2023-04-09T00:16:24;43893.44;;;-143.84;90.37
6032;BME280;3044;43.232;27.972;2023-04-09T00:18:51;43859.19;;;-143.84;89.84
6032;BME280;3044;43.232;27.972;2023-04-09T00:21:18;43870.59;;;-143.84;89.64
6032;BME280;3044;43.232;27.972;2023-04-09T00:23:46;43830.63;;;-143.84;89.18
6032;BME280;3044;43.232;27.972;2023-04-09T00:26:13;43864.88;;;-143.84;89.27
6032;BME280;3044;43.232;27.972;2023-04-09T00:28:40;43838.25;;;-143.84;88.87
6032;BME280;3044;43.232;27.972;2023-04-09T00:31:07;43847.75;;;-143.84;88.76
6032;BME280;3044;43.232;27.972;2023-04-09T00:33:36;43849.66;;;-143.84;89.16
6032;BME280;3044;43.232;27.972;2023-04-09T00:36:04;43866.78;;;-143.84;89.07
6032;BME280;3044;43.232;27.972;2023-04-09T00:38:31;43830.63;;;-143.84;88.87
6032;BME280;3044;43.232;27.972;2023-04-09T00:41:05;43826.81;;;-143.84;88.69
6032;BME280;3044;43.232;27.972;2023-04-09T00:43:32;43817.31;;;-143.84;88.37
6032;BME280;3044;43.232;27.972;2023-04-09T00:46:00;43815.41;;;-143.84;87.91
6032;BME280;3044;43.232;27.972;2023-04-09T00:48:27;43794.47;;;-143.84;87.53
6032;BME280;3044;43.232;27.972;2023-04-09T00:50:56;43800.16;;;-143.84;87.27
6032;BME280;3044;43.232;27.972;2023-04-09T00:53:24;43794.47;;;-143.84;87.27
6032;BME280;3044;43.232;27.972;2023-04-09T00:55:51;43786.84;;;-143.84;87.53
6032;BME280;3044;43.232;27.972;2023-04-09T00:58:21;43798.25;;;-143.84;87.51
6032;BME280;3044;43.232;27.972;2023-04-09T01:00:48;43811.59;;;-143.84;87.45
6032;BME280;3044;43.232;27.972;2023-04-09T01:03:16;43817.31;;;-143.84;87.55
6032;BME280;3044;43.232;27.972;2023-04-09T01:05:48;43813.50;;;-143.84;87.40
6032;BME280;3044;43.232;27.972;2023-04-09T01:08:29;43779.22;;;-143.84;87.29
6032;BME280;3044;43.232;27.972;2023-04-09T01:11:02;43803.97;;;-143.84;87.05
6032;BME280;3044;43.232;27.972;2023-04-09T01:13:39;43798.25;;;-143.84;87.07
6032;BME280;3044;43.232;27.972;2023-04-09T01:16:09;43796.34;;;-143.84;87.17
6032;BME280;3044;43.232;27.972;2023-04-09T01:18:41;43834.44;;;-143.84;87.05
6032;BME280;3044;43.232;27.972;2023-04-09T01:21:12;43815.41;;;-143.84;87.02
6032;BME280;3044;43.232;27.972;2023-04-09T01:23:46;43807.78;;;-143.84;86.95
6032;BME280;3044;43.232;27.972;2023-04-09T01:26:26;43823.00;;;-143.84;86.82
6032;BME280;3044;43.232;27.972;2023-04-09T01:28:59;43832.53;;;-143.84;86.53
6032;BME280;3044;43.232;27.972;2023-04-09T01:31:30;43803.97;;;-143.84;86.57
6032;BME280;3044;43.232;27.972;2023-04-09T01:33:59;43872.50;;;-143.84;86.39
6032;BME280;3044;43.232;27.972;2023-04-09T01:36:27;43883.91;;;-143.84;86.25
6032;BME280;3044;43.232;27.972;2023-04-09T01:38:56;43866.78;;;-143.84;85.94
6032;BME280;3044;43.232;27.972;2023-04-09T01:41:24;43948.63;;;-143.84;85.58
6032;BME280;3044;43.232;27.972;2023-04-09T01:43:52;43960.06;;;-143.84;85.60
6032;BME280;3044;43.232;27.972;2023-04-09T01:46:21;43952.44;;;-143.84;85.56
6032;BME280;3044;43.232;27.972;2023-04-09T01:48:48;44032.41;;;-143.84;85.08
6032;BME280;3044;43.232;27.972;2023-04-09T01:51:16;44139.00;;;-143.84;84.75
6032;BME280;3044;43.232;27.972;2023-04-09T01:53:44;44119.97;;;-143.84;84.80
6032;BME280;3044;43.232;27.972;2023-04-09T01:56:11;44232.28;;;-143.84;84.53
6032;BME280;3044;43.232;27.972;2023-04-09T01:58:38;44495.00;;;-143.84;83.78
6032;BME280;3044;43.232;27.972;2023-04-09T02:01:09;44706.34;;;-143.84;83.03
6032;BME280;3044;43.232;27.972;2023-04-09T02:03:45;44771.06;;;-143.84;82.48
6032;BME280;3044;43.232;27.972;2023-04-09T02:06:16;44858.66;;;-143.84;81.75
6032;BME280;3044;43.232;27.972;2023-04-09T02:08:48;44891.03;;;-143.84;81.88
6032;BME280;3044;43.232;27.972;2023-04-09T02:11:18;44908.16;;;-143.84;81.35
6032;BME280;3044;43.232;27.972;2023-04-09T02:13:48;44982.41;;;-143.84;80.87
6032;BME280;3044;43.232;27.972;2023-04-09T02:16:19;45005.28;;;-143.84;80.71
6032;BME280;3044;43.232;27.972;2023-04-09T02:18:52;44995.75;;;-143.84;80.76
6032;BME280;3044;43.232;27.972;2023-04-09T02:21:19;44999.56;;;-143.84;80.57
6032;BME280;3044;43.232;27.972;2023-04-09T02:23:46;45003.38;;;-143.84;80.64
6032;BME280;3044;43.232;27.972;2023-04-09T02:26:13;45007.19;;;-143.84;81.13
6032;BME280;3044;43.232;27.972;2023-04-09T02:28:41;44990.03;;;-143.84;81.41
6032;BME280;3044;43.232;27.972;2023-04-09T02:31:08;44938.63;;;-143.84;81.44
6032;BME280;3044;43.232;27.972;2023-04-09T02:33:35;44927.19;;;-143.84;82.10
6032;BME280;3044;43.232;27.972;2023-04-09T02:36:05;44868.19;;;-143.84;82.45
6032;BME280;3044;43.232;27.972;2023-04-09T02:38:32;44801.53;;;-143.84;82.52
6032;BME280;3044;43.232;27.972;2023-04-09T02:40:59;44736.81;;;-143.84;83.29
6032;BME280;3044;43.232;27.972;2023-04-09T02:43:27;44672.06;;;-143.84;83.49
6032;BME280;3044;43.232;27.972;2023-04-09T02:45:54;44580.69;;;-143.84;83.65
6032;BME280;3044;43.232;27.972;2023-04-09T02:48:21;44523.56;;;-143.84;84.51
6032;BME280;3044;43.232;27.972;2023-04-09T02:50:48;44435.97;;;-143.84;84.61
6032;BME280;3044;43.232;27.972;2023-04-09T02:53:17;44325.56;;;-143.84;85.00
6032;BME280;3044;43.232;27.972;2023-04-09T02:55:46;44253.22;;;-143.84;85.15
6032;BME280;3044;43.232;27.972;2023-04-09T02:58:13;44239.91;;;-143.84;85.06
6032;BME280;3044;43.232;27.972;2023-04-09T03:00:40;44211.34;;;-143.84;84.63
6032;BME280;3044;43.232;27.972;2023-04-09T03:03:07;44222.75;;;-143.84;85.13
6032;BME280;3044;43.232;27.972;2023-04-09T03:05:35;44222.75;;;-143.84;85.35
6032;BME280;3044;43.232;27.972;2023-04-09T03:08:02;44177.06;;;-143.84;85.56
6032;BME280;3044;43.232;27.972;2023-04-09T03:10:31;44156.13;;;-143.84;85.66
6032;BME280;3044;43.232;27.972;2023-04-09T03:12:58;44230.38;;;-143.84;84.98
6032;BME280;3044;43.232;27.972;2023-04-09T03:15:25;44325.56;;;-143.84;85.30
6032;BME280;3044;43.232;27.972;2023-04-09T03:17:52;44500.72;;;-143.84;84.44
6032;BME280;3044;43.232;27.972;2023-04-09T03:20:19;44685.38;;;-143.84;83.80
6032;BME280;3044;43.232;27.972;2023-04-09T03:22:46;44759.66;;;-143.84;83.51
6032;BME280;3044;43.232;27.972;2023-04-09T03:25:14;44725.38;;;-143.84;83.29
6032;BME280;3044;43.232;27.972;2023-04-09T03:27:42;44784.41;;;-143.84;83.17
6032;BME280;3044;43.232;27.972;2023-04-09T03:30:10;44767.25;;;-143.84;83.12
6032;BME280;3044;43.232;27.972;2023-04-09T03:32:38;44891.03;;;-143.84;82.73
6032;BME280;3044;43.232;27.972;2023-04-09T03:35:05;44858.66;;;-143.84;82.61
6032;BME280;3044;43.232;27.972;2023-04-09T03:37:32;44953.88;;;-143.84;82.14
6032;BME280;3044;43.232;27.972;2023-04-09T03:40:00;44974.81;;;-143.84;81.67
6032;BME280;3044;43.232;27.972;2023-04-09T03:42:27;44997.66;;;-143.84;81.58
6032;BME280;3044;43.232;27.972;2023-04-09T03:44:55;44911.97;;;-143.84;81.85
6032;BME280;3044;43.232;27.972;2023-04-09T03:47:23;44934.81;;;-143.84;82.11
6032;BME280;3044;43.232;27.972;2023-04-09T03:49:50;44948.16;;;-143.84;81.79
6032;BME280;3044;43.232;27.972;2023-04-09T03:52:17;44900.53;;;-143.84;82.81
6032;BME280;3044;43.232;27.972;2023-04-09T03:54:44;44858.66;;;-143.84;83.26
6032;BME280;3044;43.232;27.972;2023-04-09T03:57:11;44757.75;;;-143.84;83.58
6032;BME280;3044;43.232;27.972;2023-04-09T03:59:38;44771.06;;;-143.84;83.61
6032;BME280;3044;43.232;27.972;2023-04-09T04:02:07;44733.00;;;-143.84;83.62
6032;BME280;3044;43.232;27.972;2023-04-09T04:04:34;44694.91;;;-143.84;83.76
6032;BME280;3044;43.232;27.972;2023-04-09T04:07:02;44672.06;;;-143.84;83.85
6032;BME280;3044;43.232;27.972;2023-04-09T04:09:29;44601.63;;;-143.84;83.75
6032;BME280;3044;43.232;27.972;2023-04-09T04:11:56;44620.66;;;-143.84;84.34
6032;BME280;3044;43.232;27.972;2023-04-09T04:14:23;44639.69;;;-143.84;84.17
6032;BME280;3044;43.232;27.972;2023-04-09T04:16:51;44653.03;;;-143.84;83.93
6032;BME280;3044;43.232;27.972;2023-04-09T04:19:19;44725.38;;;-143.84;84.05
6032;BME280;3044;43.232;27.972;2023-04-09T04:21:46;44771.06;;;-143.84;83.62
6032;BME280;3044;43.232;27.972;2023-04-09T04:24:13;44731.09;;;-143.84;83.66
6032;BME280;3044;43.232;27.972;2023-04-09T04:26:41;44729.19;;;-143.84;83.56
6032;BME280;3044;43.232;27.972;2023-04-09T04:29:08;44725.38;;;-143.84;83.81
6032;BME280;3044;43.232;27.972;2023-04-09T04:31:35;44719.66;;;-143.84;83.80
6032;BME280;3044;43.232;27.972;2023-04-09T04:34:02;44763.47;;;-143.84;83.09
6032;BME280;3044;43.232;27.972;2023-04-09T04:36:31;44752.03;;;-143.84;83.89
6032;BME280;3044;43.232;27.972;2023-04-09T04:38:58;44721.56;;;-143.84;83.43
6032;BME280;3044;43.232;27.972;2023-04-09T04:41:25;44772.97;;;-143.84;83.22
6032;BME280;3044;43.232;27.972;2023-04-09T04:43:52;44759.66;;;-143.84;83.48
6032;BME280;3044;43.232;27.972;2023-04-09T04:46:19;44683.50;;;-143.84;84.14
6032;BME280;3044;43.232;27.972;2023-04-09T04:48:46;44660.63;;;-143.84;83.66
6032;BME280;3044;43.232;27.972;2023-04-09T04:51:13;44835.81;;;-143.84;82.79
6032;BME280;3044;43.232;27.972;2023-04-09T04:53:42;44967.19;;;-143.84;81.43
6032;BME280;3044;43.232;27.972;2023-04-09T04:56:12;45003.38;;;-143.84;80.62
6032;BME280;3044;43.232;27.972;2023-04-09T04:58:39;45075.72;;;-143.84;79.46
6032;BME280;3044;43.232;27.972;2023-04-09T05:01:06;44999.56;;;-143.84;79.85
6032;BME280;3044;43.232;27.972;2023-04-09T05:03:33;45068.13;;;-143.84;78.40
6032;BME280;3044;43.232;27.972;2023-04-09T05:06:00;45098.56;;;-143.84;76.07
6032;BME280;3044;43.232;27.972;2023-04-09T05:08:27;45127.13;;;-143.84;75.06
6032;BME280;3044;43.232;27.972;2023-04-09T05:10:56;45142.38;;;-143.84;70.37
6032;BME280;3044;43.232;27.972;2023-04-09T05:13:23;45157.59;;;-143.84;66.33
6032;BME280;3044;43.232;27.972;2023-04-09T05:15:50;45157.59;;;-143.84;64.00
6032;BME280;3044;43.232;27.972;2023-04-09T05:18:18;45144.28;;;-143.84;64.59
6032;BME280;3044;43.232;27.972;2023-04-09T05:20:45;45134.75;;;-143.84;62.97
6032;BME280;3044;43.232;27.972;2023-04-09T05:23:12;45144.28;;;-143.84;58.86
6032;BME280;3044;43.232;27.972;2023-04-09T05:25:39;45132.84;;;-143.84;59.50
6032;BME280;3044;43.232;27.972;2023-04-09T05:28:08;45123.34;;;-143.84;58.25
6032;BME280;3044;43.232;27.972;2023-04-09T05:30:36;45117.63;;;-143.84;57.33
6032;BME280;3044;43.232;27.972;2023-04-09T05:33:03;45119.53;;;-143.84;55.71
6032;BME280;3044;43.232;27.972;2023-04-09T05:35:30;45111.91;;;-143.84;53.14
6032;BME280;3044;43.232;27.972;2023-04-09T05:37:57;45121.44;;;-143.84;52.60
6032;BME280;3044;43.232;27.972;2023-04-09T05:40:25;45117.63;;;-143.84;51.54
6032;BME280;3044;43.232;27.972;2023-04-09T05:42:52;45102.38;;;-143.84;51.63
6032;BME280;3044;43.232;27.972;2023-04-09T05:45:20;45111.91;;;-143.84;50.92
6032;BME280;3044;43.232;27.972;2023-04-09T05:47:48;45123.34;;;-143.84;49.87
6032;BME280;3044;43.232;27.972;2023-04-09T05:50:15;45125.22;;;-143.84;49.68
6032;BME280;3044;43.232;27.972;2023-04-09T05:52:42;45096.66;;;-143.84;50.35
6032;BME280;3044;43.232;27.972;2023-04-09T05:55:09;45115.72;;;-143.84;50.64
6032;BME280;3044;43.232;27.972;2023-04-09T05:57:37;45130.94;;;-143.84;50.08
6032;BME280;3044;43.232;27.972;2023-04-09T06:00:05;45125.22;;;-143.84;50.08
6032;BME280;3044;43.232;27.972;2023-04-09T06:02:34;45117.63;;;-143.84;50.33
6032;BME280;3044;43.232;27.972;2023-04-09T06:05:01;45115.72;;;-143.84;50.94
6032;BME280;3044;43.232;27.972;2023-04-09T06:07:28;45121.44;;;-143.84;50.72
6032;BME280;3044;43.232;27.972;2023-04-09T06:09:55;45083.34;;;-143.84;51.16
6032;BME280;3044;43.232;27.972;2023-04-09T06:12:22;45096.66;;;-143.84;49.85
6032;BME280;3044;43.232;27.972;2023-04-09T06:14:50;45102.38;;;-143.84;50.73
6032;BME280;3044;43.232;27.972;2023-04-09T06:17:17;45123.34;;;-143.84;49.69
6032;BME280;3044;43.232;27.972;2023-04-09T06:19:45;45098.56;;;-143.84;50.46
6032;BME280;3044;43.232;27.972;2023-04-09T06:22:12;45127.13;;;-143.84;50.84
6032;BME280;3044;43.232;27.972;2023-04-09T06:24:40;45119.53;;;-143.84;50.02
6032;BME280;3044;43.232;27.972;2023-04-09T06:27:07;45094.78;;;-143.84;50.60
6032;BME280;3044;43.232;27.972;2023-04-09T06:29:34;45129.03;;;-143.84;50.84
6032;BME280;3044;43.232;27.972;2023-04-09T06:32:01;45129.03;;;-143.84;50.44
6032;BME280;3044;43.232;27.972;2023-04-09T06:34:28;45115.72;;;-143.84;50.63
6032;BME280;3044;43.232;27.972;2023-04-09T06:36:57;45121.44;;;-143.84;51.19
6032;BME280;3044;43.232;27.972;2023-04-09T06:39:24;45102.38;;;-143.84;50.54
6032;BME280;3044;43.232;27.972;2023-04-09T06:41:51;45119.53;;;-143.84;49.73
6032;BME280;3044;43.232;27.972;2023-04-09T06:44:18;45121.44;;;-143.84;48.99
6032;BME280;3044;43.232;27.972;2023-04-09T06:46:46;45121.44;;;-143.84;49.16
6032;BME280;3044;43.232;27.972;2023-04-09T06:49:13;45096.66;;;-143.84;47.91
6032;BME280;3044;43.232;27.972;2023-04-09T06:51:40;45115.72;;;-143.84;50.42
6032;BME280;3044;43.232;27.972;2023-04-09T06:54:09;45130.94;;;-143.84;50.06
6032;BME280;3044;43.232;27.972;2023-04-09T06:56:36;45123.34;;;-143.84;49.88
6032;BME280;3044;43.232;27.972;2023-04-09T06:59:03;45111.91;;;-143.84;49.43
6032;BME280;3044;43.232;27.972;2023-04-09T07:01:30;45108.09;;;-143.84;49.64
6032;BME280;3044;43.232;27.972;2023-04-09T07:03:57;45119.53;;;-143.84;50.46
6032;BME280;3044;43.232;27.972;2023-04-09T07:06:24;45115.72;;;-143.84;50.40
6032;BME280;3044;43.232;27.972;2023-04-09T07:08:52;45111.91;;;-143.84;50.83
6032;BME280;3044;43.232;27.972;2023-04-09T07:11:20;45115.72;;;-143.84;51.50
6032;BME280;3044;43.232;27.972;2023-04-09T07:13:47;45125.22;;;-143.84;51.81
6032;BME280;3044;43.232;27.972;2023-04-09T07:16:14;45113.81;;;-143.84;50.61
6032;BME280;3044;43.232;27.972;2023-04-09T07:18:42;45077.63;;;-143.84;50.96
6032;BME280;3044;43.232;27.972;2023-04-09T07:21:09;45125.22;;;-143.84;52.61
6032;BME280;3044;43.232;27.972;2023-04-09T07:23:36;45108.09;;;-143.84;52.60
6032;BME280;3044;43.232;27.972;2023-04-09T07:26:03;45125.22;;;-143.84;53.39
6032;BME280;3044;43.232;27.972;2023-04-09T07:28:32;45098.56;;;-143.84;53.24
6032;BME280;3044;43.232;27.972;2023-04-09T07:31:00;45106.19;;;-143.84;50.88
6032;BME280;3044;43.232;27.972;2023-04-09T07:33:28;45092.88;;;-143.84;50.01
6032;BME280;3044;43.232;27.972;2023-04-09T07:35:55;45104.28;;;-143.84;46.82
6032;BME280;3044;43.232;27.972;2023-04-09T07:38:23;45108.09;;;-143.84;46.94
6032;BME280;3044;43.232;27.972;2023-04-09T07:40:50;45123.34;;;-143.84;47.07
6032;BME280;3044;43.232;27.972;2023-04-09T07:43:17;45104.28;;;-143.84;46.75
6032;BME280;3044;43.232;27.972;2023-04-09T07:45:47;45085.25;;;-143.84;44.13
6032;BME280;3044;43.232;27.972;2023-04-09T07:48:15;45106.19;;;-143.84;44.97
6032;BME280;3044;43.232;27.972;2023-04-09T07:50:43;45106.19;;;-143.84;45.82
6032;BME280;3044;43.232;27.972;2023-04-09T07:53:10;45132.84;;;-143.84;45.71
6032;BME280;3044;43.232;27.972;2023-04-09T07:55:38;45125.22;;;-143.84;46.20
6032;BME280;3044;43.232;27.972;2023-04-09T07:58:06;45121.44;;;-143.84;45.80
6032;BME280;3044;43.232;27.972;2023-04-09T08:00:33;45098.56;;;-143.84;46.72
6032;BME280;3044;43.232;27.972;2023-04-09T08:03:01;45111.91;;;-143.84;47.18
6032;BME280;3044;43.232;27.972;2023-04-09T08:05:29;45108.09;;;-143.84;46.33
6032;BME280;3044;43.232;27.972;2023-04-09T08:07:56;45113.81;;;-143.84;44.87
6032;BME280;3044;43.232;27.972;2023-04-09T08:10:23;45104.28;;;-143.84;46.29
6032;BME280;3044;43.232;27.972;2023-04-09T08:12:50;45104.28;;;-143.84;46.78
6032;BME280;3044;43.232;27.972;2023-04-09T08:15:18;45085.25;;;-143.84;47.40
6032;BME280;3044;43.232;27.972;2023-04-09T08:17:45;45123.34;;;-143.84;48.53
6032;BME280;3044;43.232;27.972;2023-04-09T08:20:14;45102.38;;;-143.84;47.87
6032;BME280;3044;43.232;27.972;2023-04-09T08:22:42;45106.19;;;-143.84;48.01
6032;BME280;3044;43.232;27.972;2023-04-09T08:25:09;45096.66;;;-143.84;47.49
6032;BME280;3044;43.232;27.972;2023-04-09T08:27:37;45090.97;;;-143.84;46.92
6032;BME280;3044;43.232;27.972;2023-04-09T08:30:05;45087.16;;;-143.84;48.43
6032;BME280;3044;43.232;27.972;2023-04-09T08:32:32;45129.03;;;-143.84;48.34
6032;BME280;3044;43.232;27.972;2023-04-09T08:35:00;45096.66;;;-143.84;48.25
6032;BME280;3044;43.232;27.972;2023-04-09T08:37:28;45110.00;;;-143.84;48.81
6032;BME280;3044;43.232;27.972;2023-04-09T08:39:55;45104.28;;;-143.84;50.03
6032;BME280;3044;43.232;27.972;2023-04-09T08:42:24;45119.53;;;-143.84;48.87
6032;BME280;3044;43.232;27.972;2023-04-09T08:44:51;45094.78;;;-143.84;48.03
6032;BME280;3044;43.232;27.972;2023-04-09T08:47:19;45104.28;;;-143.84;48.17
6032;BME280;3044;43.232;27.972;2023-04-09T08:49:46;45094.78;;;-143.84;47.66
6032;BME280;3044;43.232;27.972;2023-04-09T08:52:14;45100.47;;;-143.84;48.17
6032;BME280;3044;43.232;27.972;2023-04-09T08:54:48;45090.97;;;-143.84;48.11
6032;BME280;3044;43.232;27.972;2023-04-09T08:57:16;45102.38;;;-143.84;47.95
6032;BME280;3044;43.232;27.972;2023-04-09T08:59:43;45111.91;;;-143.84;49.66
6032;BME280;3044;43.232;27.972;2023-04-09T09:02:11;45106.19;;;-143.84;48.21
6032;BME280;3044;43.232;27.972;2023-04-09T09:04:45;45106.19;;;-143.84;46.28
6032;BME280;3044;43.232;27.972;2023-04-09T09:07:13;45129.03;;;-143.84;43.33
6032;BME280;3044;43.232;27.972;2023-04-09T09:09:53;45115.72;;;-143.84;44.62
6032;BME280;3044;43.232;27.972;2023-04-09T09:12:37;45092.88;;;-143.84;45.67
6032;BME280;3044;43.232;27.972;2023-04-09T09:15:23;45100.47;;;-143.84;45.10
6032;BME280;3044;43.232;27.972;2023-04-09T09:17:53;45110.00;;;-143.84;46.33
6032;BME280;3044;43.232;27.972;2023-04-09T09:20:21;45098.56;;;-143.84;44.72
6032;BME280;3044;43.232;27.972;2023-04-09T09:22:49;45110.00;;;-143.84;45.93
6032;BME280;3044;43.232;27.972;2023-04-09T09:25:18;45115.72;;;-143.84;45.69
6032;BME280;3044;43.232;27.972;2023-04-09T09:27:48;45094.78;;;-143.84;44.00
6032;BME280;3044;43.232;27.972;2023-04-09T09:30:20;45098.56;;;-143.84;41.64
6032;BME280;3044;43.232;27.972;2023-04-09T09:32:51;45089.06;;;-143.84;46.61
6032;BME280;3044;43.232;27.972;2023-04-09T09:35:18;45100.47;;;-143.84;44.78
6032;BME280;3044;43.232;27.972;2023-04-09T09:37:46;45096.66;;;-143.84;44.43
6032;BME280;3044;43.232;27.972;2023-04-09T09:40:26;45104.28;;;-143.84;43.58
6032;BME280;3044;43.232;27.972;2023-04-09T09:42:54;45096.66;;;-143.84;44.90
6032;BME280;3044;43.232;27.972;2023-04-09T09:45:23;45068.13;;;-143.84;44.11
6032;BME280;3044;43.232;27.972;2023-04-09T09:47:51;45096.66;;;-143.84;43.14
6032;BME280;3044;43.232;27.972;2023-04-09T09:50:20;45056.69;;;-143.84;42.42
6032;BME280;3044;43.232;27.972;2023-04-09T09:52:50;45071.91;;;-143.84;42.77
6032;BME280;3044;43.232;27.972;2023-04-09T09:55:21;45083.34;;;-143.84;41.92
6032;BME280;3044;43.232;27.972;2023-04-09T09:57:56;45079.53;;;-143.84;41.82
6032;BME280;3044;43.232;27.972;2023-04-09T10:00:24;45075.72;;;-143.84;41.88
6032;BME280;3044;43.232;27.972;2023-04-09T10:02:55;45100.47;;;-143.84;40.59
6032;BME280;3044;43.232;27.972;2023-04-09T10:05:23;45090.97;;;-143.84;41.69
6032;BME280;3044;43.232;27.972;2023-04-09T10:07:53;45119.53;;;-143.84;43.00
6032;BME280;3044;43.232;27.972;2023-04-09T10:10:23;45071.91;;;-143.84;42.27
6032;BME280;3044;43.232;27.972;2023-04-09T10:12:51;45111.91;;;-143.84;43.67
6032;BME280;3044;43.232;27.972;2023-04-09T10:15:18;45094.78;;;-143.84;42.88
6032;BME280;3044;43.232;27.972;2023-04-09T10:17:47;45073.81;;;-143.84;43.36
6032;BME280;3044;43.232;27.972;2023-04-09T10:20:17;45104.28;;;-143.84;42.26
6032;BME280;3044;43.232;27.972;2023-04-09T10:22:49;45081.44;;;-143.84;42.87
6032;BME280;3044;43.232;27.972;2023-04-09T10:25:17;45073.81;;;-143.84;43.84
6032;BME280;3044;43.232;27.972;2023-04-09T10:27:58;45094.78;;;-143.84;43.53
6032;BME280;3044;43.232;27.972;2023-04-09T10:30:32;45090.97;;;-143.84;44.72
6032;BME280;3044;43.232;27.972;2023-04-09T10:33:09;45096.66;;;-143.84;42.39
6032;BME280;3044;43.232;27.972;2023-04-09T10:35:37;45102.38;;;-143.84;42.79
6032;BME280;3044;43.232;27.972;2023-04-09T10:38:06;45096.66;;;-143.84;43.31
6032;BME280;3044;43.232;27.972;2023-04-09T10:40:35;45110.00;;;-143.84;43.80
6032;BME280;3044;43.232;27.972;2023-04-09T10:43:08;45102.38;;;-143.84;44.63
6032;BME280;3044;43.232;27.972;2023-04-09T10:45:39;45096.66;;;-143.84;45.26
6032;BME280;3044;43.232;27.972;2023-04-09T10:48:10;45110.00;;;-143.84;44.20
6032;BME280;3044;43.232;27.972;2023-04-09T10:50:41;45123.34;;;-143.84;44.28
6032;BME280;3044;43.232;27.972;2023-04-09T10:53:20;45098.56;;;-143.84;45.50
6032;BME280;3044;43.232;27.972;2023-04-09T10:55:49;45083.34;;;-143.84;43.43
6032;BME280;3044;43.232;27.972;2023-04-09T10:58:18;45085.25;;;-143.84;44.68
6032;BME280;3044;43.232;27.972;2023-04-09T11:00:46;45085.25;;;-143.84;45.30
6032;BME280;3044;43.232;27.972;2023-04-09T11:03:24;45075.72;;;-143.84;42.87
6032;BME280;3044;43.232;27.972;2023-04-09T11:05:56;45075.72;;;-143.84;43.56
6032;BME280;3044;43.232;27.972;2023-04-09T11:08:27;45085.25;;;-143.84;41.52
6032;BME280;3044;43.232;27.972;2023-04-09T11:10:55;45098.56;;;-143.84;40.54
6032;BME280;3044;43.232;27.972;2023-04-09T11:13:27;45087.16;;;-143.84;40.66
6032;BME280;3044;43.232;27.972;2023-04-09T11:15:55;45090.97;;;-143.84;40.97
6032;BME280;3044;43.232;27.972;2023-04-09T11:18:24;45100.47;;;-143.84;40.88
6032;BME280;3044;43.232;27.972;2023-04-09T11:20:53;45090.97;;;-143.84;41.66
6032;BME280;3044;43.232;27.972;2023-04-09T11:23:21;45098.56;;;-143.84;41.88
6032;BME280;3044;43.232;27.972;2023-04-09T11:25:50;45098.56;;;-143.84;41.00
6032;BME280;3044;43.232;27.972;2023-04-09T11:28:18;45094.78;;;-143.84;39.91
6032;BME280;3044;43.232;27.972;2023-04-09T11:30:49;45089.06;;;-143.84;40.97
6032;BME280;3044;43.232;27.972;2023-04-09T11:33:16;45117.63;;;-143.84;41.31
6032;BME280;3044;43.232;27.972;2023-04-09T11:35:44;45092.88;;;-143.84;40.86
6032;BME280;3044;43.232;27.972;2023-04-09T11:38:11;45085.25;;;-143.84;41.32
6032;BME280;3044;43.232;27.972;2023-04-09T11:40:41;45115.72;;;-143.84;41.16
6032;BME280;3044;43.232;27.972;2023-04-09T11:43:14;45090.97;;;-143.84;41.98
6032;BME280;3044;43.232;27.972;2023-04-09T11:45:42;45100.47;;;-143.84;39.63
6032;BME280;3044;43.232;27.972;2023-04-09T11:48:11;45121.44;;;-143.84;39.63
6032;BME280;3044;43.232;27.972;2023-04-09T11:50:39;45106.19;;;-143.84;39.47
6032;BME280;3044;43.232;27.972;2023-04-09T11:53:17;45113.81;;;-143.84;38.47
6032;BME280;3044;43.232;27.972;2023-04-09T11:55:47;45077.63;;;-143.84;39.65
6032;BME280;3044;43.232;27.972;2023-04-09T11:58:15;45092.88;;;-143.84;40.04
6032;BME280;3044;43.232;27.972;2023-04-09T12:00:43;45100.47;;;-143.84;39.23
6032;BME280;3044;43.232;27.972;2023-04-09T12:03:12;45083.34;;;-143.84;45.32
6032;BME280;3044;43.232;27.972;2023-04-09T12:05:44;45089.06;;;-143.84;43.46
6032;BME280;3044;43.232;27.972;2023-04-09T12:08:13;45121.44;;;-143.84;41.82
6032;BME280;3044;43.232;27.972;2023-04-09T12:10:41;45106.19;;;-143.84;42.76
6032;BME280;3044;43.232;27.972;2023-04-09T12:13:10;45083.34;;;-143.84;42.82
6032;BME280;3044;43.232;27.972;2023-04-09T12:15:38;45089.06;;;-143.84;41.69
6032;BME280;3044;43.232;27.972;2023-04-09T12:18:09;45094.78;;;-143.84;42.19
6032;BME280;3044;43.232;27.972;2023-04-09T12:20:39;45115.72;;;-143.84;41.91
6032;BME280;3044;43.232;27.972;2023-04-09T12:23:07;45085.25;;;-143.84;42.74
6032;BME280;3044;43.232;27.972;2023-04-09T12:25:36;45085.25;;;-143.84;41.31
6032;BME280;3044;43.232;27.972;2023-04-09T12:28:03;45115.72;;;-143.84;41.96
6032;BME280;3044;43.232;27.972;2023-04-09T12:30:31;45096.66;;;-143.84;43.08
6032;BME280;3044;43.232;27.972;2023-04-09T12:32:59;45102.38;;;-143.84;42.40
6032;BME280;3044;43.232;27.972;2023-04-09T12:35:26;45100.47;;;-143.84;42.51
6032;BME280;3044;43.232;27.972;2023-04-09T12:37:55;45087.16;;;-143.84;43.35
6032;BME280;3044;43.232;27.972;2023-04-09T12:40:23;45106.19;;;-143.84;43.39
6032;BME280;3044;43.232;27.972;2023-04-09T12:42:51;45110.00;;;-143.84;43.87
6032;BME280;3044;43.232;27.972;2023-04-09T12:45:18;45108.09;;;-143.84;42.80
6032;BME280;3044;43.232;27.972;2023-04-09T12:47:46;45096.66;;;-143.84;42.70
6032;BME280;3044;43.232;27.972;2023-04-09T12:50:14;45110.00;;;-143.84;43.10
6032;BME280;3044;43.232;27.972;2023-04-09T12:52:42;45148.09;;;-143.84;43.16
6032;BME280;3044;43.232;27.972;2023-04-09T12:55:11;45106.19;;;-143.84;42.42
6032;BME280;3044;43.232;27.972;2023-04-09T12:57:41;45119.53;;;-143.84;42.26